createdAt,value
2018-01-26T00:00:50.740Z,59.60
2018-01-26T00:03:19.065Z,59.50
2018-01-26T00:05:47.440Z,59.40
2018-01-26T00:08:15.770Z,59.40
2018-01-26T00:10:44.101Z,59.50
2018-01-26T00:13:12.434Z,59.60
2018-01-26T00:15:40.852Z,59.90
2018-01-26T00:18:09.174Z,59.80
2018-01-26T00:20:37.508Z,60.00
2018-01-26T00:23:05.833Z,59.90
2018-01-26T00:25:34.161Z,59.80
2018-01-26T00:28:02.550Z,59.80
2018-01-26T00:30:30.866Z,59.80
2018-01-26T00:32:59.196Z,59.60
2018-01-26T00:35:27.574Z,59.70
2018-01-26T00:37:55.904Z,59.80
2018-01-26T00:40:24.231Z,59.70
2018-01-26T00:42:52.551Z,59.50
2018-01-26T00:45:21.601Z,60.10
2018-01-26T00:47:49.570Z,59.50
2018-01-26T00:50:18.255Z,59.90
2018-01-26T00:52:45.808Z,59.50
2018-01-26T00:55:15.909Z,59.50
2018-01-26T00:57:44.246Z,59.70
2018-01-26T01:00:12.554Z,59.50
2018-01-26T01:02:40.873Z,59.50
2018-01-26T01:05:09.266Z,59.70
2018-01-26T01:07:37.589Z,59.90
2018-01-26T01:10:05.903Z,62.00
2018-01-26T01:12:34.235Z,61.00
2018-01-26T01:15:02.541Z,60.80
2018-01-26T01:17:30.854Z,60.40
2018-01-26T01:19:59.150Z,60.20
2018-01-26T01:22:27.490Z,60.00
2018-01-26T01:24:55.918Z,60.00
2018-01-26T01:27:24.234Z,60.00
2018-01-26T01:29:52.270Z,60.00
2018-01-26T01:32:20.645Z,60.10
2018-01-26T01:34:48.308Z,61.80
2018-01-26T01:37:16.248Z,61.80
2018-01-26T01:39:44.574Z,60.80
2018-01-26T01:42:12.881Z,60.90
2018-01-26T01:44:41.951Z,61.10
2018-01-26T01:47:09.507Z,61.80
2018-01-26T01:49:37.834Z,62.50
2018-01-26T01:52:06.150Z,62.30
2018-01-26T01:54:34.470Z,62.40
2018-01-26T01:57:02.779Z,62.70
2018-01-26T01:59:31.219Z,62.60
2018-01-26T02:01:59.521Z,63.50
2018-01-26T02:04:27.838Z,63.70
2018-01-26T02:06:56.247Z,63.40
2018-01-26T02:09:24.562Z,62.90
2018-01-26T02:11:52.862Z,62.60
2018-01-26T02:14:21.193Z,62.30
2018-01-26T02:16:49.491Z,62.00
2018-01-26T02:19:17.814Z,62.10
2018-01-26T02:21:46.224Z,60.70
2018-01-26T02:24:32.273Z,62.30
2018-01-26T02:27:00.207Z,63.10
2018-01-26T02:29:27.846Z,63.50
2018-01-26T02:31:56.977Z,63.10
2018-01-26T02:34:24.539Z,62.70
2018-01-26T02:36:53.596Z,63.40
2018-01-26T02:39:21.546Z,62.70
2018-01-26T02:41:49.466Z,62.60
2018-01-26T02:44:17.794Z,62.50
2018-01-26T02:46:45.338Z,62.20
2018-01-26T02:49:13.290Z,61.90
2018-01-26T02:51:41.588Z,61.90
2018-01-26T02:54:09.909Z,61.90
2018-01-26T02:56:38.206Z,62.20
2018-01-26T02:59:06.511Z,62.50
2018-01-26T03:01:34.917Z,62.60
2018-01-26T03:04:03.230Z,62.60
2018-01-26T03:06:30.913Z,62.60
2018-01-26T03:08:59.233Z,62.80
2018-01-26T03:11:27.186Z,60.90
2018-01-26T03:13:55.712Z,60.90
2018-01-26T03:16:23.674Z,60.60
2018-01-26T03:18:52.000Z,60.50
2018-01-26T03:21:20.424Z,60.40
2018-01-26T03:23:48.742Z,60.20
2018-01-26T03:26:17.925Z,60.40
2018-01-26T03:28:45.463Z,60.00
2018-01-26T03:31:13.789Z,60.20
2018-01-26T03:33:42.106Z,60.50
2018-01-26T03:36:10.441Z,60.70
2018-01-26T03:38:38.858Z,60.70
2018-01-26T03:41:07.178Z,60.20
2018-01-26T03:43:36.214Z,62.10
2018-01-26T03:46:04.173Z,61.60
2018-01-26T03:48:32.145Z,61.80
2018-01-26T03:51:00.550Z,62.00
2018-01-26T03:53:28.854Z,62.10
2018-01-26T03:55:57.290Z,61.90
2018-01-26T03:58:25.595Z,61.80
2018-01-26T04:00:53.939Z,60.50
2018-01-26T04:03:22.338Z,60.30
2018-01-26T04:05:50.667Z,60.40
2018-01-26T04:08:19.714Z,60.70
2018-01-26T04:10:47.303Z,60.30
2018-01-26T04:13:15.611Z,60.10
2018-01-26T04:15:43.942Z,60.10
2018-01-26T04:18:12.303Z,60.10
2018-01-26T04:20:40.784Z,60.20
2018-01-26T04:23:09.217Z,60.50
2018-01-26T04:25:38.283Z,61.20
2018-01-26T04:28:05.862Z,61.30
2018-01-26T04:30:34.929Z,62.60
2018-01-26T04:33:02.479Z,62.20
2018-01-26T04:35:30.802Z,62.80
2018-01-26T04:37:59.114Z,62.80
2018-01-26T04:40:27.442Z,62.40
2018-01-26T04:42:56.760Z,62.40
2018-01-26T04:45:24.737Z,61.80
2018-01-26T04:47:53.057Z,62.20
2018-01-26T04:50:20.613Z,61.60
2018-01-26T04:52:48.989Z,61.10
2018-01-26T04:55:16.531Z,61.10
2018-01-26T04:57:44.841Z,60.70
2018-01-26T05:00:13.407Z,60.40
2018-01-26T05:02:41.033Z,60.50
2018-01-26T05:05:08.578Z,60.60
2018-01-26T05:07:36.525Z,61.20
2018-01-26T05:10:04.837Z,61.40
2018-01-26T05:12:33.163Z,61.40
2018-01-26T05:15:01.473Z,61.40
2018-01-26T05:17:29.790Z,61.50
2018-01-26T05:19:58.147Z,61.50
2018-01-26T05:22:26.459Z,61.60
2018-01-26T05:24:54.801Z,61.60
2018-01-26T05:27:23.122Z,61.70
2018-01-26T05:29:51.456Z,61.50
2018-01-26T05:32:19.781Z,61.50
2018-01-26T05:34:47.314Z,61.30
2018-01-26T05:37:15.299Z,61.20
2018-01-26T05:39:44.379Z,61.40
2018-01-26T05:42:11.941Z,61.10
2018-01-26T05:44:40.254Z,61.50
2018-01-26T05:47:08.602Z,61.30
2018-01-26T05:49:37.028Z,61.00
2018-01-26T05:52:05.330Z,61.20
2018-01-26T05:54:33.656Z,61.20
2018-01-26T05:57:01.962Z,61.60
2018-01-26T05:59:30.292Z,61.80
2018-01-26T06:01:58.602Z,61.60
2018-01-26T06:04:26.927Z,61.60
2018-01-26T06:06:55.290Z,61.80
2018-01-26T06:09:23.614Z,61.50
2018-01-26T06:11:51.940Z,61.30
2018-01-26T06:14:20.270Z,61.80
2018-01-26T06:16:48.578Z,62.30
2018-01-26T06:19:16.906Z,62.30
2018-01-26T06:21:45.268Z,62.40
2018-01-26T06:24:13.646Z,62.90
2018-01-26T06:26:41.962Z,62.50
2018-01-26T06:29:10.299Z,62.40
2018-01-26T06:31:38.683Z,62.70
2018-01-26T06:34:07.013Z,62.50
2018-01-26T06:36:35.317Z,62.70
2018-01-26T06:39:03.633Z,62.30
2018-01-26T06:41:32.045Z,62.60
2018-01-26T06:44:00.469Z,62.50
2018-01-26T06:46:28.791Z,62.30
2018-01-26T06:48:58.028Z,63.00
2018-01-26T06:51:25.961Z,62.80
2018-01-26T06:53:53.577Z,63.10
2018-01-26T06:56:21.952Z,63.50
2018-01-26T06:58:50.291Z,63.70
2018-01-26T07:01:18.611Z,63.30
2018-01-26T07:03:46.929Z,63.40
2018-01-26T07:06:15.234Z,63.20
2018-01-26T07:08:43.616Z,63.10
2018-01-26T07:11:11.917Z,63.40
2018-01-26T07:13:40.296Z,63.30
2018-01-26T07:16:08.675Z,63.30
2018-01-26T07:18:37.000Z,63.40
2018-01-26T07:21:05.339Z,63.30
2018-01-26T07:23:33.651Z,63.40
2018-01-26T07:26:01.978Z,63.30
2018-01-26T07:28:30.321Z,62.80
2018-01-26T07:30:58.685Z,62.80
2018-01-26T07:33:27.136Z,63.00
2018-01-26T07:35:55.546Z,63.20
2018-01-26T07:38:23.857Z,63.30
2018-01-26T07:40:52.174Z,63.20
2018-01-26T07:43:20.482Z,63.30
2018-01-26T07:45:48.821Z,63.40
2018-01-26T07:48:17.235Z,63.50
2018-01-26T07:50:45.577Z,63.40
2018-01-26T07:53:13.879Z,63.20
2018-01-26T07:55:42.205Z,63.20
2018-01-26T07:58:10.688Z,69.00
2018-01-26T08:00:39.129Z,61.40
2018-01-26T08:03:07.429Z,60.00
2018-01-26T08:05:35.476Z,60.00
2018-01-26T08:08:03.802Z,60.80
2018-01-26T08:10:31.761Z,61.20
2018-01-26T08:12:59.302Z,62.00
2018-01-26T08:15:27.657Z,62.10
2018-01-26T08:17:55.962Z,62.50
2018-01-26T08:20:24.349Z,62.80
2018-01-26T08:22:52.658Z,62.20
2018-01-26T08:25:20.985Z,62.60
2018-01-26T08:27:49.302Z,62.60
2018-01-26T08:30:17.630Z,62.80
2018-01-26T08:32:46.318Z,63.20
2018-01-26T08:35:14.658Z,63.40
2018-01-26T08:37:42.612Z,63.00
2018-01-26T08:40:10.944Z,62.80
2018-01-26T08:42:39.338Z,62.70
2018-01-26T08:45:07.645Z,62.80
2018-01-26T08:47:35.974Z,62.60
2018-01-26T08:50:05.021Z,62.70
2018-01-26T08:52:32.978Z,62.60
2018-01-26T08:55:00.913Z,62.40
2018-01-26T08:57:29.354Z,62.20
2018-01-26T08:59:57.678Z,62.00
2018-01-26T09:02:26.000Z,62.00
2018-01-26T09:04:54.310Z,62.30
2018-01-26T09:07:22.629Z,62.20
2018-01-26T09:09:51.043Z,62.30
2018-01-26T09:12:19.371Z,62.90
2018-01-26T09:14:47.689Z,62.80
2018-01-26T09:17:15.248Z,62.20
2018-01-26T09:19:43.021Z,62.10
2018-01-26T09:22:10.610Z,62.00
2018-01-26T09:24:38.145Z,62.00
2018-01-26T09:27:05.714Z,62.30
2018-01-26T09:29:33.261Z,62.50
2018-01-26T09:32:00.826Z,62.10
2018-01-26T09:34:28.371Z,62.40
2018-01-26T09:36:55.975Z,62.30
2018-01-26T09:39:24.289Z,62.20
2018-01-26T09:41:52.617Z,63.00
2018-01-26T09:44:20.149Z,62.00
2018-01-26T09:46:47.715Z,62.10
2018-01-26T09:49:15.270Z,62.10
2018-01-26T09:51:42.845Z,62.00
2018-01-26T09:54:10.437Z,61.70
2018-01-26T09:56:38.050Z,61.40
2018-01-26T09:59:05.590Z,61.20
2018-01-26T10:01:33.942Z,60.70
2018-01-26T10:04:02.270Z,61.50
2018-01-26T10:06:29.807Z,61.00
2018-01-26T10:08:57.658Z,61.10
2018-01-26T10:11:25.953Z,61.70
2018-01-26T10:13:53.505Z,60.90
2018-01-26T10:16:21.041Z,60.60
2018-01-26T10:18:49.374Z,60.80
2018-01-26T10:21:16.914Z,59.90
2018-01-26T10:23:44.470Z,60.10
2018-01-26T10:26:12.006Z,60.00
2018-01-26T10:28:40.331Z,60.50
2018-01-26T10:31:07.884Z,59.70
2018-01-26T10:33:35.444Z,60.00
2018-01-26T10:36:02.986Z,60.10
2018-01-26T10:38:30.553Z,59.40
2018-01-26T10:40:58.089Z,59.00
2018-01-26T10:43:25.641Z,59.20
2018-01-26T10:45:53.174Z,59.90
2018-01-26T10:48:21.508Z,60.60
2018-01-26T10:50:49.149Z,58.80
2018-01-26T10:53:16.702Z,58.20
2018-01-26T10:55:44.234Z,57.90
2018-01-26T10:58:12.591Z,57.80
2018-01-26T11:00:44.147Z,57.20
2018-01-26T11:03:11.713Z,57.10
2018-01-26T11:05:39.249Z,56.70
2018-01-26T11:08:06.802Z,56.60
2018-01-26T11:10:34.734Z,57.00
2018-01-26T11:13:02.305Z,57.00
2018-01-26T11:15:30.250Z,57.20
2018-01-26T11:17:58.576Z,58.30
2018-01-26T11:20:26.116Z,58.20
2018-01-26T11:22:53.649Z,58.10
2018-01-26T11:25:21.210Z,58.20
2018-01-26T11:27:48.751Z,58.00
2018-01-26T11:30:17.081Z,58.00
2018-01-26T11:32:44.621Z,58.00
2018-01-26T11:35:12.202Z,58.00
2018-01-26T11:37:39.746Z,58.00
2018-01-26T11:40:07.303Z,58.20
2018-01-26T11:42:34.846Z,58.50
2018-01-26T11:45:02.408Z,59.10
2018-01-26T11:47:29.965Z,59.00
2018-01-26T11:49:57.521Z,59.20
2018-01-26T11:52:25.058Z,59.30
2018-01-26T11:54:53.379Z,60.00
2018-01-26T11:57:20.911Z,59.50
2018-01-26T11:59:48.869Z,59.20
2018-01-26T12:02:17.167Z,59.70
2018-01-26T12:04:45.132Z,59.00
2018-01-26T12:07:12.683Z,59.10
2018-01-26T12:09:40.999Z,59.70
2018-01-26T12:12:08.542Z,59.30
2018-01-26T12:14:36.088Z,59.50
2018-01-26T12:17:03.626Z,59.60
2018-01-26T12:19:31.184Z,59.80
2018-01-26T12:21:58.713Z,59.70
2018-01-26T12:24:27.580Z,60.00
2018-01-26T12:26:55.547Z,59.20
2018-01-26T12:29:23.721Z,59.00
2018-01-26T12:31:52.106Z,59.30
2018-01-26T12:34:20.173Z,59.00
2018-01-26T12:36:48.396Z,58.80
2018-01-26T12:39:16.379Z,58.30
2018-01-26T12:41:43.940Z,58.20
2018-01-26T12:44:11.925Z,57.90
2018-01-26T12:46:39.488Z,58.00
2018-01-26T12:49:07.092Z,58.00
2018-01-26T12:51:34.701Z,58.00
2018-01-26T12:54:02.297Z,57.70
2018-01-26T12:56:30.307Z,57.80
2018-01-26T12:58:57.911Z,58.50
2018-01-26T13:01:25.508Z,58.80
2018-01-26T13:03:53.185Z,58.70
2018-01-26T13:06:20.789Z,58.20
2018-01-26T13:08:49.162Z,57.70
2018-01-26T13:11:16.856Z,57.30
2018-01-26T13:13:44.470Z,56.80
2018-01-26T13:16:12.860Z,56.80
2018-01-26T13:18:41.220Z,57.10
2018-01-26T13:21:09.600Z,57.50
2018-01-26T13:23:37.186Z,56.60
2018-01-26T13:26:04.771Z,56.50
2018-01-26T13:28:32.649Z,56.70
2018-01-26T13:31:00.254Z,56.80
2018-01-26T13:33:28.569Z,57.60
2018-01-26T13:35:56.159Z,57.30
2018-01-26T13:38:24.136Z,57.40
2018-01-26T13:40:51.727Z,57.20
2018-01-26T13:43:20.040Z,56.90
2018-01-26T13:45:47.613Z,57.10
2018-01-26T13:48:15.169Z,57.20
2018-01-26T13:50:42.736Z,56.80
2018-01-26T13:53:10.692Z,56.50
2018-01-26T13:55:38.276Z,56.00
2018-01-26T13:58:06.595Z,56.70
2018-01-26T14:00:34.909Z,56.40
2018-01-26T14:03:02.454Z,56.30
2018-01-26T14:05:29.998Z,56.40
2018-01-26T14:07:58.157Z,56.70
2018-01-26T14:10:25.707Z,56.60
2018-01-26T14:12:53.270Z,56.40
2018-01-26T14:15:20.810Z,56.50
2018-01-26T14:17:48.380Z,56.60
2018-01-26T14:20:15.916Z,56.60
2018-01-26T14:22:44.242Z,57.10
2018-01-26T14:25:11.807Z,57.00
2018-01-26T14:27:39.366Z,57.00
2018-01-26T14:30:06.923Z,57.10
2018-01-26T14:32:34.491Z,57.30
2018-01-26T14:35:02.033Z,57.10
2018-01-26T14:37:29.590Z,56.90
2018-01-26T14:39:57.546Z,57.20
2018-01-26T14:42:25.508Z,57.40
2018-01-26T14:44:53.044Z,57.60
2018-01-26T14:47:20.605Z,58.10
2018-01-26T14:49:48.140Z,59.10
2018-01-26T14:52:16.461Z,59.80
2018-01-26T14:54:44.392Z,59.90
2018-01-26T14:57:12.720Z,60.30
2018-01-26T14:59:40.286Z,59.90
2018-01-26T15:02:08.606Z,60.50
2018-01-26T15:04:36.914Z,60.80
2018-01-26T15:07:04.476Z,60.30
2018-01-26T15:09:32.018Z,60.00
2018-01-26T15:11:59.582Z,60.30
2018-01-26T15:14:27.121Z,60.30
2018-01-26T15:16:55.447Z,61.20
2018-01-26T15:19:22.986Z,60.80
2018-01-26T15:21:50.607Z,60.60
2018-01-26T15:24:18.935Z,63.20
2018-01-26T15:26:47.624Z,62.20
2018-01-26T15:29:15.179Z,61.60
2018-01-26T15:31:42.715Z,62.10
2018-01-26T15:34:10.279Z,61.90
2018-01-26T15:36:37.861Z,61.40
2018-01-26T15:39:05.452Z,62.10
2018-01-26T15:41:33.041Z,62.60
2018-01-26T15:44:01.799Z,62.60
2018-01-26T15:46:29.663Z,62.40
2018-01-26T15:48:57.629Z,62.40
2018-01-26T15:51:25.481Z,62.30
2018-01-26T15:53:53.096Z,62.30
2018-01-26T15:56:21.024Z,62.20
2018-01-26T15:58:50.137Z,62.80
2018-01-26T16:01:18.495Z,63.70
2018-01-26T16:03:46.044Z,62.50
2018-01-26T16:06:13.624Z,62.20
2018-01-26T16:08:41.227Z,62.60
2018-01-26T16:11:08.817Z,62.30
2018-01-26T16:13:36.434Z,62.50
2018-01-26T16:16:04.860Z,62.60
2018-01-26T16:18:32.475Z,62.50
2018-01-26T16:21:02.969Z,62.70
2018-01-26T16:23:30.562Z,62.70
2018-01-26T16:25:58.162Z,62.70
2018-01-26T16:28:25.766Z,62.80
2018-01-26T16:30:53.753Z,62.80
2018-01-26T16:33:21.355Z,62.90
2018-01-26T16:35:48.957Z,62.70
2018-01-26T16:38:16.557Z,63.00
2018-01-26T16:40:44.556Z,63.20
2018-01-26T16:43:12.140Z,63.50
2018-01-26T16:45:39.731Z,63.60
2018-01-26T16:48:07.307Z,63.40
2018-01-26T16:50:35.688Z,64.20
2018-01-26T16:53:03.991Z,64.30
2018-01-26T16:55:31.637Z,63.70
2018-01-26T16:58:00.006Z,63.80
2018-01-26T17:00:27.629Z,63.70
2018-01-26T17:02:55.222Z,63.60
2018-01-26T17:05:23.995Z,65.40
2018-01-26T17:07:51.967Z,64.70
2018-01-26T17:10:19.938Z,64.30
2018-01-26T17:12:48.498Z,64.90
2018-01-26T17:15:16.091Z,64.20
2018-01-26T17:17:44.418Z,64.80
2018-01-26T17:20:11.988Z,64.10
2018-01-26T17:22:39.528Z,64.20
2018-01-26T17:25:07.087Z,64.40
2018-01-26T17:27:35.398Z,64.20
2018-01-26T17:30:03.007Z,64.20
2018-01-26T17:32:30.615Z,64.20
2018-01-26T17:34:58.249Z,64.20
2018-01-26T17:37:26.580Z,64.10
2018-01-26T17:39:54.150Z,63.90
2018-01-26T17:42:22.463Z,64.50
2018-01-26T17:44:50.060Z,64.20
2018-01-26T17:47:17.653Z,64.10
2018-01-26T17:49:45.981Z,64.70
2018-01-26T17:52:13.939Z,64.10
2018-01-26T17:54:42.304Z,64.30
2018-01-26T17:57:09.880Z,64.50
2018-01-26T17:59:37.515Z,64.20
2018-01-26T18:02:05.082Z,64.20
2018-01-26T18:04:32.671Z,63.90
2018-01-26T18:07:00.282Z,63.90
2018-01-26T18:09:27.865Z,63.80
2018-01-26T18:11:55.482Z,63.90
2018-01-26T18:14:23.817Z,64.40
2018-01-26T18:16:51.437Z,63.90
2018-01-26T18:19:18.983Z,63.80
2018-01-26T18:21:47.369Z,64.60
2018-01-26T18:24:15.690Z,64.70
2018-01-26T18:26:43.312Z,64.10
2018-01-26T18:29:10.906Z,64.30
2018-01-26T18:31:38.486Z,64.80
2018-01-26T18:34:06.036Z,65.10
2018-01-26T18:36:33.594Z,65.10
2018-01-26T18:39:01.134Z,65.20
2018-01-26T18:41:28.758Z,65.30
2018-01-26T18:43:57.142Z,66.20
2018-01-26T18:46:25.538Z,66.20
2018-01-26T18:48:53.218Z,65.50
2018-01-26T18:51:21.103Z,66.10
2018-01-26T18:53:48.729Z,66.30
2018-01-26T18:56:16.822Z,66.00
2018-01-26T18:58:44.381Z,66.00
2018-01-26T19:01:11.945Z,65.80
2018-01-26T19:03:39.498Z,66.10
2018-01-26T19:06:07.062Z,66.00
2018-01-26T19:08:34.664Z,65.70
2018-01-26T19:11:02.272Z,65.60
2018-01-26T19:13:29.871Z,65.40
2018-01-26T19:15:57.497Z,65.20
2018-01-26T19:18:25.081Z,65.70
2018-01-26T19:20:52.619Z,65.60
2018-01-26T19:23:20.252Z,65.50
2018-01-26T19:25:48.605Z,66.10
2018-01-26T19:28:16.952Z,66.30
2018-01-26T19:30:44.531Z,65.80
2018-01-26T19:33:12.213Z,65.70
2018-01-26T19:35:40.590Z,66.20
2018-01-26T19:38:08.150Z,65.30
2018-01-26T19:40:35.764Z,65.30
2018-01-26T19:43:03.388Z,65.30
2018-01-26T19:45:31.746Z,67.90
2018-01-26T19:48:00.068Z,66.20
2018-01-26T19:50:27.666Z,65.70
2018-01-26T19:52:56.107Z,65.70
2018-01-26T19:55:23.645Z,65.40
2018-01-26T19:57:52.023Z,65.70
2018-01-26T20:00:20.326Z,65.90
2018-01-26T20:02:47.941Z,65.40
2018-01-26T20:05:33.837Z,65.70
2018-01-26T20:08:20.025Z,66.30
2018-01-26T20:10:47.653Z,65.90
2018-01-26T20:13:21.747Z,66.70
2018-01-26T20:15:49.366Z,66.40
2018-01-26T20:18:16.977Z,67.50
2018-01-26T20:20:44.913Z,67.90
2018-01-26T20:23:12.540Z,66.80
2018-01-26T20:25:40.143Z,66.40
2018-01-26T20:28:08.495Z,66.00
2018-01-26T20:30:36.177Z,67.60
2018-01-26T20:33:03.797Z,66.90
2018-01-26T20:35:32.157Z,67.20
2018-01-26T20:38:00.542Z,68.30
2018-01-26T20:40:28.861Z,67.00
2018-01-26T20:42:56.511Z,66.40
2018-01-26T20:45:24.061Z,66.20
2018-01-26T20:47:51.641Z,66.40
2018-01-26T20:50:19.226Z,67.50
2018-01-26T20:52:46.859Z,67.80
2018-01-26T20:55:15.606Z,68.30
2018-01-26T20:57:43.967Z,68.40
2018-01-26T21:00:11.549Z,66.60
2018-01-26T21:02:39.916Z,66.50
2018-01-26T21:05:08.348Z,67.10
2018-01-26T21:07:35.938Z,67.10
2018-01-26T21:10:03.550Z,66.40
2018-01-26T21:12:31.134Z,67.60
2018-01-26T21:14:58.757Z,67.80
2018-01-26T21:17:27.076Z,68.10
2018-01-26T21:19:54.832Z,67.30
2018-01-26T21:22:23.212Z,67.70
2018-01-26T21:24:50.827Z,67.60
2018-01-26T21:27:19.186Z,68.60
2018-01-26T21:29:46.810Z,68.20
2018-01-26T21:32:14.425Z,68.40
2018-01-26T21:34:42.452Z,68.50
2018-01-26T21:37:10.853Z,69.20
2018-01-26T21:39:39.252Z,68.70
2018-01-26T21:42:06.853Z,68.20
2018-01-26T21:44:34.456Z,68.60
2018-01-26T21:47:02.763Z,68.60
2018-01-26T21:49:30.387Z,67.70
2018-01-26T21:51:58.702Z,68.50
2018-01-26T21:54:26.326Z,68.40
2018-01-26T21:56:54.327Z,68.30
2018-01-26T21:59:21.939Z,68.20
2018-01-26T22:01:49.534Z,68.20
2018-01-26T22:04:17.909Z,68.10
2018-01-26T22:06:51.976Z,66.80
2018-01-26T22:09:19.577Z,67.30
2018-01-26T22:11:47.953Z,67.80
2018-01-26T22:14:16.309Z,67.90
2018-01-26T22:16:43.943Z,67.10
2018-01-26T22:19:11.557Z,67.40
2018-01-26T22:21:39.550Z,67.70
2018-01-26T22:24:07.173Z,68.00
2018-01-26T22:26:35.142Z,68.30
2018-01-26T22:29:02.729Z,68.20
2018-01-26T22:31:30.290Z,68.10
2018-01-26T22:33:57.881Z,67.80
2018-01-26T22:36:25.500Z,68.00
2018-01-26T22:38:53.853Z,67.70
2018-01-26T22:41:21.798Z,67.70
2018-01-26T22:43:49.340Z,67.60
2018-01-26T22:46:17.353Z,67.40
2018-01-26T22:48:44.958Z,67.20
2018-01-26T22:51:12.526Z,66.20
2018-01-26T22:53:40.140Z,66.00
2018-01-26T22:56:07.747Z,66.00
2018-01-26T22:58:35.338Z,67.20
2018-01-26T23:01:02.975Z,67.30
2018-01-26T23:03:30.564Z,67.50
2018-01-26T23:05:58.192Z,67.30
2018-01-26T23:08:25.728Z,67.10
2018-01-26T23:10:53.289Z,67.50
2018-01-26T23:13:21.268Z,67.80
2018-01-26T23:15:48.940Z,67.50
2018-01-26T23:18:16.530Z,66.10
2018-01-26T23:20:44.140Z,66.00
2018-01-26T23:23:11.684Z,66.00
2018-01-26T23:25:39.995Z,66.30
2018-01-26T23:28:07.555Z,65.60
2018-01-26T23:30:35.091Z,65.30
2018-01-26T23:33:02.645Z,65.40
2018-01-26T23:35:30.185Z,65.40
2018-01-26T23:37:57.757Z,65.60
2018-01-26T23:40:25.297Z,65.50
2018-01-26T23:42:52.909Z,66.60
2018-01-26T23:45:20.492Z,66.90
2018-01-26T23:47:48.819Z,67.40
2018-01-26T23:50:17.133Z,66.10
2018-01-26T23:52:44.741Z,65.10
2018-01-26T23:55:12.284Z,65.20
2018-01-26T23:57:41.350Z,65.70
